Time;durP1;ratioP1;P1;durP2;ratioP2;P2;SDS_P1;SDS_P2;PMS_P1;PMS_P2;Temp;Humidity;BMP_temperature;BMP_pressure;BME280_temperature;BME280_humidity;BME280_pressure;Samples;Min_cycle;Max_cycle;Signal;HPM_P1;HPM_P2
2021/11/25 00:00:57;;;;;;;63.10;31.43;;;;;;;;;;5003329;28;20557;-71
2021/11/25 00:03:22;;;;;;;59.37;31.53;;;;;;;;;;5000439;28;20703;-71
2021/11/25 00:05:48;;;;;;;58.20;30.77;;;;;;;;;;5010273;28;20775;-70
2021/11/25 00:08:13;;;;;;;64.07;31.27;;;;;;;;;;5009150;28;20202;-71
2021/11/25 00:10:40;;;;;;;58.40;31.43;;;;;;;;;;5008551;28;20293;-71
2021/11/25 00:13:06;;;;;;;65.67;32.57;;;;;;;;;;4997534;28;20570;-71
2021/11/25 00:15:31;;;;;;;68.70;32.33;;;;;;;;;;5008826;28;20210;-71
2021/11/25 00:17:57;;;;;;;65.07;31.87;;;;;;;;;;4998673;28;20171;-71
2021/11/25 00:20:22;;;;;;;68.83;32.70;;;;;;;;;;5009602;28;20191;-71
2021/11/25 00:22:48;;;;;;;57.73;29.57;;;;;;;;;;5005383;28;20178;-71
2021/11/25 00:25:14;;;;;;;56.60;29.17;;;;;;;;;;4998753;28;20252;-71
2021/11/25 00:27:40;;;;;;;57.60;29.83;;;;;;;;;;5006938;28;20182;-71
2021/11/25 00:30:07;;;;;;;60.00;28.80;;;;;;;;;;4997495;28;20210;-71
2021/11/25 00:32:33;;;;;;;60.77;29.73;;;;;;;;;;5003262;28;20187;-71
2021/11/25 00:34:59;;;;;;;57.33;29.63;;;;;;;;;;4998641;28;20185;-71
2021/11/25 00:37:25;;;;;;;58.30;28.43;;;;;;;;;;4997529;28;20553;-71
2021/11/25 00:39:50;;;;;;;58.67;29.40;;;;;;;;;;4994854;28;20194;-71
2021/11/25 00:42:16;;;;;;;63.33;30.93;;;;;;;;;;5003543;28;20179;-70
2021/11/25 00:44:41;;;;;;;59.37;29.57;;;;;;;;;;4995864;28;20222;-71
2021/11/25 00:47:07;;;;;;;59.13;29.70;;;;;;;;;;5015024;28;20178;-71
2021/11/25 00:49:32;;;;;;;60.57;31.10;;;;;;;;;;4996467;28;20616;-71
2021/11/25 00:51:57;;;;;;;63.33;29.97;;;;;;;;;;5015955;28;20182;-71
2021/11/25 00:54:24;;;;;;;65.93;30.00;;;;;;;;;;4999156;28;20187;-71
2021/11/25 00:56:49;;;;;;;57.60;27.67;;;;;;;;;;5000823;28;20678;-70
2021/11/25 00:59:14;;;;;;;70.93;32.57;;;;;;;;;;5005764;28;20202;-71
2021/11/25 01:01:40;;;;;;;74.67;34.03;;;;;;;;;;4999126;28;20274;-71
2021/11/25 01:04:05;;;;;;;71.07;32.60;;;;;;;;;;5003599;28;20195;-71
2021/11/25 01:06:31;;;;;;;65.17;31.30;;;;;;;;;;4995967;28;20632;-71
2021/11/25 01:08:57;;;;;;;66.90;31.30;;;;;;;;;;5002574;28;20286;-71
2021/11/25 01:11:25;;;;;;;60.50;29.77;;;;;;;;;;4994271;28;20194;-71
2021/11/25 01:13:50;;;;;;;63.03;30.17;;;;;;;;;;5004976;28;20186;-71
2021/11/25 01:16:16;;;;;;;64.57;30.90;;;;;;;;;;4997509;28;20216;-70
2021/11/25 01:18:41;;;;;;;68.20;31.27;;;;;;;;;;5003267;28;20651;-71
2021/11/25 01:21:06;;;;;;;66.50;30.90;;;;;;;;;;4998396;28;20186;-71
2021/11/25 01:23:32;;;;;;;69.47;29.30;;;;;;;;;;5005493;28;20257;-71
2021/11/25 01:25:58;;;;;;;67.47;30.20;;;;;;;;;;5009466;28;20188;-70
2021/11/25 01:28:26;;;;;;;70.73;30.00;;;;;;;;;;4994388;28;20549;-71
2021/11/25 01:30:55;;;;;;;66.83;29.60;;;;;;;;;;5006602;28;20242;-71
2021/11/25 01:33:21;;;;;;;68.23;29.43;;;;;;;;;;4994582;28;20273;-71
2021/11/25 01:35:48;;;;;;;67.23;29.10;;;;;;;;;;5006479;28;20179;-70
2021/11/25 01:38:14;;;;;;;62.43;28.23;;;;;;;;;;4998665;28;20191;-70
2021/11/25 01:40:41;;;;;;;73.33;30.33;;;;;;;;;;5006719;28;20536;-70
2021/11/25 01:43:07;;;;;;;75.37;31.20;;;;;;;;;;4998223;28;20209;-70
2021/11/25 01:45:33;;;;;;;66.00;29.33;;;;;;;;;;5003145;28;20187;-70
2021/11/25 01:47:58;;;;;;;72.90;31.47;;;;;;;;;;4997742;28;20526;-71
2021/11/25 01:50:25;;;;;;;73.33;30.70;;;;;;;;;;5001914;28;20207;-71
2021/11/25 01:52:51;;;;;;;63.73;28.20;;;;;;;;;;4998059;28;20186;-71
2021/11/25 01:55:18;;;;;;;74.83;29.83;;;;;;;;;;5001366;28;20322;-71
2021/11/25 01:57:45;;;;;;;69.80;30.03;;;;;;;;;;5001988;28;20179;-71
2021/11/25 02:00:22;;;;;;;69.47;29.70;;;;;;;;;;4995883;28;20203;-71
2021/11/25 02:02:48;;;;;;;72.80;30.17;;;;;;;;;;5004892;28;20765;-71
2021/11/25 02:05:14;;;;;;;68.33;29.20;;;;;;;;;;4996212;28;20206;-71
2021/11/25 02:07:39;;;;;;;64.13;28.07;;;;;;;;;;5005605;28;20230;-71
2021/11/25 02:10:06;;;;;;;65.93;28.40;;;;;;;;;;4994942;28;20209;-71
2021/11/25 02:12:32;;;;;;;70.13;30.37;;;;;;;;;;5002820;28;20335;-71
2021/11/25 02:14:58;;;;;;;76.03;30.70;;;;;;;;;;4996904;28;20194;-70
2021/11/25 02:17:23;;;;;;;64.37;27.60;;;;;;;;;;4999151;28;20194;-70
2021/11/25 02:19:49;;;;;;;71.77;31.00;;;;;;;;;;4993167;28;20209;-71
2021/11/25 02:22:16;;;;;;;68.27;29.50;;;;;;;;;;5008968;28;20222;-71
2021/11/25 02:24:42;;;;;;;70.03;29.83;;;;;;;;;;4995771;28;20183;-70
2021/11/25 02:27:07;;;;;;;73.40;30.47;;;;;;;;;;5009402;28;20201;-71
2021/11/25 02:29:32;;;;;;;73.87;30.83;;;;;;;;;;4998970;28;20415;-70
2021/11/25 02:31:58;;;;;;;67.27;28.83;;;;;;;;;;5006196;28;20585;-70
2021/11/25 02:34:23;;;;;;;65.83;29.73;;;;;;;;;;5000558;28;20187;-70
2021/11/25 02:36:49;;;;;;;71.97;29.87;;;;;;;;;;5000152;28;20288;-70
2021/11/25 02:39:14;;;;;;;76.40;30.03;;;;;;;;;;5009881;28;20248;-70
2021/11/25 02:41:40;;;;;;;72.80;30.10;;;;;;;;;;5001924;28;20232;-70
2021/11/25 02:44:06;;;;;;;75.33;30.50;;;;;;;;;;5010328;28;20764;-70
2021/11/25 02:46:31;;;;;;;70.97;30.73;;;;;;;;;;5000855;28;20678;-70
2021/11/25 02:48:58;;;;;;;79.43;30.83;;;;;;;;;;5009268;28;20350;-70
2021/11/25 02:51:27;;;;;;;75.47;29.87;;;;;;;;;;5004783;28;20183;-70
2021/11/25 02:53:53;;;;;;;69.40;29.73;;;;;;;;;;5012271;28;20183;-71
2021/11/25 02:56:22;;;;;;;79.13;31.50;;;;;;;;;;5000787;28;20265;-71
2021/11/25 02:58:49;;;;;;;70.83;31.43;;;;;;;;;;5010725;28;20186;-71
2021/11/25 03:01:30;;;;;;;76.43;31.77;;;;;;;;;;4998105;28;20630;-71
2021/11/25 03:03:57;;;;;;;79.00;31.37;;;;;;;;;;5012468;28;20186;-70
2021/11/25 03:06:23;;;;;;;69.57;28.73;;;;;;;;;;4999910;28;20246;-71
2021/11/25 03:08:49;;;;;;;74.53;29.87;;;;;;;;;;5006045;28;20183;-70
2021/11/25 03:11:18;;;;;;;76.27;31.67;;;;;;;;;;5006308;28;20198;-71
2021/11/25 03:13:46;;;;;;;77.80;30.93;;;;;;;;;;5008657;28;20202;-70
2021/11/25 03:16:14;;;;;;;75.47;31.80;;;;;;;;;;5008229;28;20340;-70
2021/11/25 03:18:40;;;;;;;83.17;32.37;;;;;;;;;;4999885;28;20359;-70
2021/11/25 03:21:07;;;;;;;73.40;31.00;;;;;;;;;;5007688;28;20533;-71
2021/11/25 03:23:35;;;;;;;75.10;30.27;;;;;;;;;;4997923;28;20190;-71
2021/11/25 03:26:02;;;;;;;79.47;31.53;;;;;;;;;;5005652;28;20206;-70
2021/11/25 03:28:28;;;;;;;79.80;31.93;;;;;;;;;;4999002;28;20556;-70
2021/11/25 03:30:55;;;;;;;84.33;33.43;;;;;;;;;;5000103;28;20212;-70
2021/11/25 03:33:27;;;;;;;76.67;32.20;;;;;;;;;;4995929;28;20193;-70
2021/11/25 03:35:53;;;;;;;75.63;30.97;;;;;;;;;;5003871;28;20183;-70
2021/11/25 03:38:19;;;;;;;81.23;32.57;;;;;;;;;;4993455;28;20249;-71
2021/11/25 03:40:44;;;;;;;78.53;31.63;;;;;;;;;;5001199;28;20179;-70
2021/11/25 03:43:10;;;;;;;76.87;31.60;;;;;;;;;;5002984;28;20642;-71
2021/11/25 03:45:36;;;;;;;74.27;31.93;;;;;;;;;;5004815;28;20281;-70
2021/11/25 03:48:01;;;;;;;71.43;31.00;;;;;;;;;;5004509;28;20210;-70
2021/11/25 03:50:27;;;;;;;75.00;32.07;;;;;;;;;;5008013;28;20253;-70
2021/11/25 03:52:52;;;;;;;72.10;31.70;;;;;;;;;;5002616;28;20186;-70
2021/11/25 03:55:21;;;;;;;72.87;31.93;;;;;;;;;;5000636;28;20261;-70
2021/11/25 03:57:47;;;;;;;70.40;31.03;;;;;;;;;;5008116;28;20547;-70
2021/11/25 04:00:15;;;;;;;73.10;30.63;;;;;;;;;;5000997;28;20697;-70
2021/11/25 04:02:41;;;;;;;73.17;32.23;;;;;;;;;;5005789;28;20290;-70
2021/11/25 04:05:08;;;;;;;77.93;32.40;;;;;;;;;;4999690;28;20262;-70
2021/11/25 04:07:33;;;;;;;71.37;31.47;;;;;;;;;;5007421;28;20432;-70
2021/11/25 04:09:59;;;;;;;73.87;32.67;;;;;;;;;;4994887;28;20393;-70
2021/11/25 04:12:24;;;;;;;73.00;33.10;;;;;;;;;;5005514;28;20631;-70
2021/11/25 04:14:50;;;;;;;71.97;30.70;;;;;;;;;;5003876;28;20218;-70
2021/11/25 04:17:18;;;;;;;68.00;29.80;;;;;;;;;;4998301;28;20245;-70
2021/11/25 04:19:43;;;;;;;72.17;32.67;;;;;;;;;;5007365;28;20187;-70
2021/11/25 04:22:09;;;;;;;77.43;32.20;;;;;;;;;;4994450;28;20187;-70
2021/11/25 04:24:34;;;;;;;67.53;29.53;;;;;;;;;;5006125;28;20194;-70
2021/11/25 04:26:59;;;;;;;70.60;31.53;;;;;;;;;;4999169;28;20472;-70
2021/11/25 04:29:26;;;;;;;65.73;31.10;;;;;;;;;;5009829;28;20203;-70
2021/11/25 04:37:19;;;;;;;67.03;31.80;;;;;;;;;;4998498;28;20567;-71
2021/11/25 04:39:45;;;;;;;70.07;33.10;;;;;;;;;;5001199;28;20191;-70
2021/11/25 04:42:10;;;;;;;72.33;34.63;;;;;;;;;;4996493;28;20578;-70
2021/11/25 04:44:36;;;;;;;64.20;30.30;;;;;;;;;;5006473;28;20278;-70
2021/11/25 04:47:02;;;;;;;66.97;33.43;;;;;;;;;;4994815;28;20264;-71
2021/11/25 04:49:28;;;;;;;58.90;29.70;;;;;;;;;;5004816;28;20222;-71
2021/11/25 04:51:53;;;;;;;60.77;31.13;;;;;;;;;;4999925;28;20551;-70
2021/11/25 04:54:18;;;;;;;63.30;30.73;;;;;;;;;;5003632;28;20773;-70
2021/11/25 04:56:44;;;;;;;62.20;31.40;;;;;;;;;;5005369;28;20305;-70
2021/11/25 04:59:09;;;;;;;58.93;29.57;;;;;;;;;;4997833;28;20548;-70
2021/11/25 05:01:34;;;;;;;58.93;29.90;;;;;;;;;;5012687;28;20191;-70
2021/11/25 05:04:01;;;;;;;57.97;30.37;;;;;;;;;;4996586;28;20345;-70
2021/11/25 05:06:26;;;;;;;55.30;27.90;;;;;;;;;;5016399;28;20230;-70
2021/11/25 05:08:52;;;;;;;52.80;28.10;;;;;;;;;;4996912;28;20182;-71
2021/11/25 05:11:17;;;;;;;54.20;29.23;;;;;;;;;;5003062;28;20237;-71
2021/11/25 05:13:42;;;;;;;54.07;28.23;;;;;;;;;;4996003;28;20273;-71
2021/11/25 05:16:08;;;;;;;54.13;28.73;;;;;;;;;;5002997;28;20190;-70
2021/11/25 05:18:33;;;;;;;52.70;28.20;;;;;;;;;;4997042;28;20282;-70
2021/11/25 05:20:59;;;;;;;53.30;29.77;;;;;;;;;;5005008;28;20175;-70
2021/11/25 05:23:25;;;;;;;51.30;28.20;;;;;;;;;;4995987;28;20665;-71
2021/11/25 05:25:52;;;;;;;50.37;28.37;;;;;;;;;;4998848;28;20186;-70
2021/11/25 05:28:18;;;;;;;52.10;29.43;;;;;;;;;;4999123;28;20185;-70
2021/11/25 05:30:43;;;;;;;54.63;29.37;;;;;;;;;;4994006;28;20308;-70
2021/11/25 05:33:09;;;;;;;55.17;28.53;;;;;;;;;;5002478;28;20198;-71
2021/11/25 05:35:34;;;;;;;52.60;29.33;;;;;;;;;;4994722;28;20511;-71
2021/11/25 05:38:00;;;;;;;55.63;28.63;;;;;;;;;;5000364;28;20187;-70
2021/11/25 05:40:25;;;;;;;51.57;28.27;;;;;;;;;;4995617;28;20183;-70
2021/11/25 05:42:51;;;;;;;51.43;29.63;;;;;;;;;;5008902;28;20182;-71
2021/11/25 05:45:18;;;;;;;50.37;28.73;;;;;;;;;;4993107;28;20182;-70
2021/11/25 05:47:46;;;;;;;59.20;29.37;;;;;;;;;;5007816;28;20760;-70
2021/11/25 05:50:18;;;;;;;54.17;31.07;;;;;;;;;;4992878;28;20289;-71
2021/11/25 05:52:46;;;;;;;50.03;28.67;;;;;;;;;;5004590;28;20210;-70
2021/11/25 05:55:12;;;;;;;57.17;30.87;;;;;;;;;;4992912;28;20210;-70
2021/11/25 05:57:38;;;;;;;58.67;31.67;;;;;;;;;;5001065;28;20175;-70
2021/11/25 06:00:05;;;;;;;54.00;30.07;;;;;;;;;;5004643;28;20619;-71
2021/11/25 06:02:31;;;;;;;57.50;30.43;;;;;;;;;;5000252;28;20186;-70
2021/11/25 06:04:56;;;;;;;54.53;30.63;;;;;;;;;;5005775;28;20261;-70
2021/11/25 06:07:21;;;;;;;58.00;30.63;;;;;;;;;;4993998;28;20231;-70
2021/11/25 06:09:47;;;;;;;53.10;28.80;;;;;;;;;;5005213;28;20281;-70
2021/11/25 06:12:12;;;;;;;57.23;30.67;;;;;;;;;;4999300;28;20229;-70
2021/11/25 06:14:37;;;;;;;58.47;31.47;;;;;;;;;;5005154;28;20183;-71
2021/11/25 06:17:03;;;;;;;54.33;29.93;;;;;;;;;;5000823;28;20650;-70
2021/11/25 06:19:29;;;;;;;55.97;30.07;;;;;;;;;;4998594;28;20623;-70
2021/11/25 06:21:56;;;;;;;56.40;31.70;;;;;;;;;;4995289;28;20193;-70
2021/11/25 06:24:21;;;;;;;55.57;30.27;;;;;;;;;;5001646;28;20191;-70
2021/11/25 06:26:49;;;;;;;52.30;29.97;;;;;;;;;;4995949;28;20201;-71
2021/11/25 06:29:15;;;;;;;54.23;29.03;;;;;;;;;;5004937;28;20217;-70
2021/11/25 06:31:40;;;;;;;50.57;27.63;;;;;;;;;;5007724;28;20203;-69
2021/11/25 06:34:06;;;;;;;52.97;30.27;;;;;;;;;;4996257;28;20178;-69
2021/11/25 06:36:32;;;;;;;58.77;31.03;;;;;;;;;;5001409;28;20182;-70
2021/11/25 06:38:57;;;;;;;53.77;30.07;;;;;;;;;;4994626;28;20286;-72
2021/11/25 06:41:22;;;;;;;55.43;30.30;;;;;;;;;;5001689;28;20399;-70
2021/11/25 06:43:48;;;;;;;46.23;26.90;;;;;;;;;;4998813;28;20190;-70
2021/11/25 06:46:13;;;;;;;51.03;27.37;;;;;;;;;;5006780;28;20240;-70
2021/11/25 06:48:38;;;;;;;47.03;26.60;;;;;;;;;;5002323;28;20186;-70
2021/11/25 06:51:04;;;;;;;47.77;26.57;;;;;;;;;;5005044;28;20297;-70
2021/11/25 06:53:29;;;;;;;44.00;26.37;;;;;;;;;;4995206;28;20278;-71
2021/11/25 06:55:55;;;;;;;43.63;26.50;;;;;;;;;;5005046;28;20218;-71
2021/11/25 06:58:20;;;;;;;46.67;27.33;;;;;;;;;;4990094;28;20206;-71
2021/11/25 07:00:46;;;;;;;45.70;26.47;;;;;;;;;;4995648;28;20644;-70
2021/11/25 07:03:12;;;;;;;50.30;31.45;;;;;;;;;;5000028;28;20430;-70
2021/11/25 07:05:37;;;;;;;48.33;28.30;;;;;;;;;;4993254;28;20190;-70
2021/11/25 07:08:03;;;;;;;49.53;26.87;;;;;;;;;;5001388;28;20175;-71
2021/11/25 07:10:29;;;;;;;42.70;25.73;;;;;;;;;;4995055;28;20222;-70
2021/11/25 07:12:54;;;;;;;45.20;25.97;;;;;;;;;;5011345;28;20256;-70
2021/11/25 07:15:22;;;;;;;42.77;26.93;;;;;;;;;;5001573;28;20274;-71
2021/11/25 07:17:48;;;;;;;46.10;26.67;;;;;;;;;;5013349;28;20247;-71
2021/11/25 07:20:14;;;;;;;43.53;27.00;;;;;;;;;;5000630;28;20186;-71
2021/11/25 07:22:40;;;;;;;46.23;26.90;;;;;;;;;;5010079;28;20546;-71
2021/11/25 07:25:08;;;;;;;50.53;27.73;;;;;;;;;;4998692;28;20190;-71
2021/11/25 07:27:33;;;;;;;46.83;26.47;;;;;;;;;;5016112;28;20198;-71
2021/11/25 07:29:59;;;;;;;44.03;26.47;;;;;;;;;;4997447;28;20218;-71
2021/11/25 07:32:24;;;;;;;48.00;26.67;;;;;;;;;;5007148;28;20190;-71
2021/11/25 07:34:50;;;;;;;45.00;27.80;;;;;;;;;;5003382;28;20226;-71
2021/11/25 07:37:15;;;;;;;47.57;28.00;;;;;;;;;;4997557;28;20253;-71
2021/11/25 07:39:41;;;;;;;46.27;27.73;;;;;;;;;;5015404;28;20220;-71
2021/11/25 07:42:06;;;;;;;46.13;27.33;;;;;;;;;;4999960;28;20205;-70
2021/11/25 07:44:32;;;;;;;46.63;27.37;;;;;;;;;;5009921;28;20187;-70
2021/11/25 07:46:57;;;;;;;46.57;28.37;;;;;;;;;;5003683;28;20503;-70
2021/11/25 07:49:24;;;;;;;50.17;29.47;;;;;;;;;;5013358;28;20217;-70
2021/11/25 07:51:49;;;;;;;45.73;28.03;;;;;;;;;;5006209;28;20237;-71
2021/11/25 07:54:14;;;;;;;47.00;27.53;;;;;;;;;;5003497;28;20713;-71
2021/11/25 07:56:41;;;;;;;46.63;28.23;;;;;;;;;;4997112;28;20297;-70
2021/11/25 07:59:06;;;;;;;50.13;29.60;;;;;;;;;;5016722;28;20177;-70
2021/11/25 08:01:33;;;;;;;51.27;29.30;;;;;;;;;;5001173;28;20202;-71
2021/11/25 08:03:58;;;;;;;49.73;28.57;;;;;;;;;;5012367;28;20197;-70
2021/11/25 08:06:23;;;;;;;49.67;28.50;;;;;;;;;;5008419;28;20234;-71
2021/11/25 08:08:49;;;;;;;46.30;27.97;;;;;;;;;;5007283;28;20378;-70
2021/11/25 08:11:14;;;;;;;48.20;29.10;;;;;;;;;;5012002;28;20243;-71
2021/11/25 08:13:39;;;;;;;43.10;27.43;;;;;;;;;;4995847;28;20513;-70
2021/11/25 08:16:05;;;;;;;48.07;27.83;;;;;;;;;;5007863;28;20264;-70
2021/11/25 08:18:30;;;;;;;43.77;26.77;;;;;;;;;;5000768;28;20202;-71
2021/11/25 08:20:56;;;;;;;42.67;27.53;;;;;;;;;;5009743;28;20199;-70
2021/11/25 08:23:21;;;;;;;44.97;27.37;;;;;;;;;;4994512;28;20202;-71
2021/11/25 08:25:47;;;;;;;44.13;26.03;;;;;;;;;;5004010;28;20297;-71
2021/11/25 08:28:12;;;;;;;43.90;26.60;;;;;;;;;;5001346;28;20195;-71
2021/11/25 08:30:37;;;;;;;45.90;26.90;;;;;;;;;;5007268;28;20305;-71
2021/11/25 08:33:03;;;;;;;46.57;27.93;;;;;;;;;;5011521;28;20195;-70
2021/11/25 08:35:29;;;;;;;44.80;27.73;;;;;;;;;;5008674;28;20182;-71
2021/11/25 08:37:56;;;;;;;43.40;27.37;;;;;;;;;;5008503;28;20190;-71
2021/11/25 08:40:22;;;;;;;45.53;27.43;;;;;;;;;;4997169;28;20199;-71
2021/11/25 08:42:48;;;;;;;47.60;28.23;;;;;;;;;;5016488;28;20495;-70
2021/11/25 08:45:15;;;;;;;46.77;28.60;;;;;;;;;;4995031;28;20210;-70
2021/11/25 08:47:40;;;;;;;46.97;28.80;;;;;;;;;;5014372;28;20680;-70
2021/11/25 08:50:09;;;;;;;45.53;27.70;;;;;;;;;;4999541;28;20230;-70
2021/11/25 08:52:34;;;;;;;46.97;27.83;;;;;;;;;;5007930;28;20205;-70
2021/11/25 08:54:59;;;;;;;48.77;29.00;;;;;;;;;;5000040;28;20550;-70
2021/11/25 08:57:25;;;;;;;46.10;27.70;;;;;;;;;;5011092;28;20645;-70
2021/11/25 08:59:50;;;;;;;44.90;27.83;;;;;;;;;;4998906;28;20658;-70
2021/11/25 09:02:16;;;;;;;45.30;27.77;;;;;;;;;;5008701;28;20502;-71
2021/11/25 09:04:41;;;;;;;46.10;28.60;;;;;;;;;;4998219;28;20187;-71
2021/11/25 09:07:06;;;;;;;46.47;28.37;;;;;;;;;;5012756;28;20764;-71
2021/11/25 09:09:32;;;;;;;43.93;27.97;;;;;;;;;;5006326;28;20269;-71
2021/11/25 09:11:59;;;;;;;44.40;28.10;;;;;;;;;;5003069;28;20521;-71
2021/11/25 09:14:24;;;;;;;42.77;27.33;;;;;;;;;;5004312;28;20197;-71
2021/11/25 09:16:50;;;;;;;47.63;28.40;;;;;;;;;;4992570;28;20195;-71
2021/11/25 09:19:15;;;;;;;44.87;28.63;;;;;;;;;;5006327;28;20579;-71
2021/11/25 09:21:41;;;;;;;47.87;28.93;;;;;;;;;;4998407;28;20281;-71
2021/11/25 09:24:07;;;;;;;43.13;28.10;;;;;;;;;;5005603;28;20252;-71
2021/11/25 09:26:34;;;;;;;45.50;28.07;;;;;;;;;;4998858;28;20233;-71
2021/11/25 09:29:03;;;;;;;42.33;28.37;;;;;;;;;;5014088;28;20270;-71
2021/11/25 09:31:31;;;;;;;46.80;28.77;;;;;;;;;;4998943;28;20201;-71
2021/11/25 09:33:57;;;;;;;43.87;28.60;;;;;;;;;;5001392;28;20179;-71
2021/11/25 09:36:25;;;;;;;43.07;28.10;;;;;;;;;;4996631;28;20212;-72
2021/11/25 09:38:53;;;;;;;42.30;27.27;;;;;;;;;;5009326;28;20587;-71
2021/11/25 09:41:18;;;;;;;42.70;27.80;;;;;;;;;;4998521;28;23475;-72
2021/11/25 09:43:44;;;;;;;40.53;27.67;;;;;;;;;;5006549;28;20198;-72
2021/11/25 09:46:10;;;;;;;43.20;27.73;;;;;;;;;;5008086;28;20218;-71
2021/11/25 09:48:37;;;;;;;42.67;28.17;;;;;;;;;;5002706;28;20218;-71
2021/11/25 09:51:05;;;;;;;45.37;28.03;;;;;;;;;;5002991;28;20268;-71
2021/11/25 09:53:31;;;;;;;44.13;28.10;;;;;;;;;;4998433;28;20197;-71
2021/11/25 09:55:57;;;;;;;47.90;29.97;;;;;;;;;;5007371;28;20236;-71
2021/11/25 09:58:26;;;;;;;42.83;27.67;;;;;;;;;;5004505;28;20222;-71
2021/11/25 10:00:57;;;;;;;45.73;29.47;;;;;;;;;;5006996;28;20186;-72
2021/11/25 10:03:23;;;;;;;46.23;29.43;;;;;;;;;;4996964;28;20195;-71
2021/11/25 10:05:52;;;;;;;44.53;28.37;;;;;;;;;;5008317;28;20230;-71
2021/11/25 10:08:35;;;;;;;50.33;32.07;;;;;;;;;;4998369;28;20663;-71
2021/11/25 10:11:08;;;;;;;51.87;31.60;;;;;;;;;;5013683;28;20556;-71
2021/11/25 10:13:47;;;;;;;55.87;32.70;;;;;;;;;;4997069;28;20190;-71
2021/11/25 10:16:17;;;;;;;59.67;35.73;;;;;;;;;;5002539;28;20179;-71
2021/11/25 10:18:44;;;;;;;63.07;35.50;;;;;;;;;;4999455;28;20324;-71
2021/11/25 10:21:16;;;;;;;57.93;35.63;;;;;;;;;;5004900;28;20282;-71
2021/11/25 10:23:44;;;;;;;63.47;37.03;;;;;;;;;;4997219;28;20611;-71
2021/11/25 10:26:16;;;;;;;64.60;38.57;;;;;;;;;;5005449;28;20286;-71
2021/11/25 10:28:53;;;;;;;65.97;38.70;;;;;;;;;;4997891;28;20196;-71
2021/11/25 10:31:22;;;;;;;63.97;37.33;;;;;;;;;;5009658;28;20195;-72
2021/11/25 10:33:56;;;;;;;66.40;38.27;;;;;;;;;;4999614;28;20190;-72
2021/11/25 10:39:07;;;;;;;78.30;42.47;;;;;;;;;;5005756;28;20553;-71
2021/11/25 10:41:34;;;;;;;72.43;41.30;;;;;;;;;;5003477;28;20190;-71
2021/11/25 10:44:15;;;;;;;68.67;40.93;;;;;;;;;;5010370;28;20256;-72
2021/11/25 10:46:40;;;;;;;78.60;42.40;;;;;;;;;;4993010;28;20410;-72
2021/11/25 10:49:06;;;;;;;80.10;41.77;;;;;;;;;;5010029;28;20183;-72
2021/11/25 10:51:34;;;;;;;79.77;42.70;;;;;;;;;;4998384;28;20546;-72
2021/11/25 10:54:01;;;;;;;75.17;41.77;;;;;;;;;;5011786;28;20254;-72
2021/11/25 10:56:38;;;;;;;78.60;43.77;;;;;;;;;;5004178;28;20221;-72
2021/11/25 10:59:04;;;;;;;80.33;43.97;;;;;;;;;;5014225;28;21122;-72
2021/11/25 11:01:38;;;;;;;78.07;43.70;;;;;;;;;;5002072;28;20195;-72
2021/11/25 11:04:05;;;;;;;75.90;42.97;;;;;;;;;;5011886;28;20516;-72
2021/11/25 11:06:33;;;;;;;79.70;42.90;;;;;;;;;;5000400;28;20772;-72
2021/11/25 11:08:59;;;;;;;79.10;42.70;;;;;;;;;;5009834;28;20647;-72
2021/11/25 11:11:24;;;;;;;77.27;42.73;;;;;;;;;;4999598;28;20593;-71
2021/11/25 11:14:19;;;;;;;78.27;42.63;;;;;;;;;;5016494;28;20198;-70
2021/11/25 11:17:15;;;;;;;77.97;42.73;;;;;;;;;;4990706;28;20191;-70
2021/11/25 11:19:31;;;;;;;76.77;41.97;;;;;;;;;;5005498;28;20792;-71
2021/11/25 11:21:58;;;;;;;75.67;42.13;;;;;;;;;;4999207;28;20273;-71
2021/11/25 11:24:26;;;;;;;75.33;41.83;;;;;;;;;;5002939;28;20202;-70
2021/11/25 11:26:57;;;;;;;75.83;42.07;;;;;;;;;;5002090;28;20268;-69
2021/11/25 11:29:24;;;;;;;77.47;42.50;;;;;;;;;;5001652;28;20210;-70
2021/11/25 11:31:52;;;;;;;76.80;42.47;;;;;;;;;;4997483;28;20201;-70
2021/11/25 11:34:19;;;;;;;77.57;41.80;;;;;;;;;;4999569;28;20203;-70
2021/11/25 11:36:48;;;;;;;72.93;40.83;;;;;;;;;;5000548;28;20587;-70
2021/11/25 11:39:16;;;;;;;72.53;39.83;;;;;;;;;;4994287;28;20187;-69
2021/11/25 11:41:44;;;;;;;76.80;40.03;;;;;;;;;;5010281;28;20195;-69
2021/11/25 11:44:10;;;;;;;71.33;40.47;;;;;;;;;;4995585;28;20245;-70
2021/11/25 11:46:37;;;;;;;70.53;39.37;;;;;;;;;;5006538;28;20607;-70
2021/11/25 11:49:04;;;;;;;73.57;40.07;;;;;;;;;;4998533;28;20482;-70
2021/11/25 11:51:32;;;;;;;76.33;41.37;;;;;;;;;;5008172;28;20190;-69
2021/11/25 11:53:58;;;;;;;71.03;40.23;;;;;;;;;;4997751;28;20552;-69
2021/11/25 11:56:39;;;;;;;76.67;40.23;;;;;;;;;;5004941;28;20210;-70
2021/11/25 11:59:06;;;;;;;75.20;39.47;;;;;;;;;;5000553;28;20302;-69
2021/11/25 12:01:32;;;;;;;73.33;40.87;;;;;;;;;;5008066;28;20613;-69
2021/11/25 12:04:09;;;;;;;70.90;40.13;;;;;;;;;;5007188;28;20657;-69
2021/11/25 12:06:42;;;;;;;75.00;41.73;;;;;;;;;;5005052;28;20222;-70
2021/11/25 12:09:11;;;;;;;72.67;39.77;;;;;;;;;;5000732;28;20201;-70
2021/11/25 12:11:48;;;;;;;71.77;39.67;;;;;;;;;;5004964;28;20202;-70
2021/11/25 12:14:22;;;;;;;75.03;39.97;;;;;;;;;;4992582;28;20198;-70
2021/11/25 12:16:54;;;;;;;66.97;38.83;;;;;;;;;;5006454;28;20635;-70
2021/11/25 12:19:34;;;;;;;70.70;37.03;;;;;;;;;;4998828;28;20193;-70
2021/11/25 12:22:09;;;;;;;69.83;38.07;;;;;;;;;;5004917;28;20189;-70
2021/11/25 12:25:00;;;;;;;69.67;38.53;;;;;;;;;;4999849;28;20200;-69
2021/11/25 12:27:26;;;;;;;69.43;38.53;;;;;;;;;;5017955;28;20183;-70
2021/11/25 12:29:59;;;;;;;69.53;39.83;;;;;;;;;;5001133;28;20243;-70
2021/11/25 12:32:44;;;;;;;70.70;39.63;;;;;;;;;;5008511;28;20658;-70
2021/11/25 12:35:13;;;;;;;69.87;37.40;;;;;;;;;;4999026;28;20198;-70
2021/11/25 12:37:41;;;;;;;64.97;35.40;;;;;;;;;;5009892;28;20195;-70
2021/11/25 12:40:16;;;;;;;62.33;36.27;;;;;;;;;;5005279;28;20206;-70
2021/11/25 12:42:48;;;;;;;65.83;35.87;;;;;;;;;;5004673;28;20197;-70
2021/11/25 12:45:22;;;;;;;66.27;35.43;;;;;;;;;;5006285;28;20187;-69
2021/11/25 12:47:48;;;;;;;65.17;35.93;;;;;;;;;;4999313;28;20220;-70
2021/11/25 12:50:21;;;;;;;68.20;35.10;;;;;;;;;;5008203;28;20245;-69
2021/11/25 12:52:47;;;;;;;64.10;33.70;;;;;;;;;;5004165;28;20190;-69
2021/11/25 12:55:15;;;;;;;65.03;34.83;;;;;;;;;;5014154;28;20212;-69
2021/11/25 12:57:55;;;;;;;63.77;35.87;;;;;;;;;;5001637;28;20218;-69
2021/11/25 13:00:23;;;;;;;62.07;34.77;;;;;;;;;;5019230;28;20186;-70
2021/11/25 13:02:58;;;;;;;58.93;33.90;;;;;;;;;;5001364;28;20193;-69
2021/11/25 13:05:24;;;;;;;74.97;39.50;;;;;;;;;;5019116;28;20522;-70
2021/11/25 13:07:50;;;;;;;63.43;34.37;;;;;;;;;;4999427;28;20226;-69
2021/11/25 13:10:37;;;;;;;66.07;36.73;;;;;;;;;;5014901;28;20217;-69
2021/11/25 13:13:18;;;;;;;61.53;34.80;;;;;;;;;;4999733;28;20642;-69
2021/11/25 13:15:56;;;;;;;64.43;34.20;;;;;;;;;;5012254;28;20281;-71
2021/11/25 13:18:22;;;;;;;67.13;35.77;;;;;;;;;;4995536;28;20475;-71
2021/11/25 13:20:54;;;;;;;66.37;35.17;;;;;;;;;;5006197;28;20186;-71
2021/11/25 13:23:22;;;;;;;69.70;34.27;;;;;;;;;;5004175;28;20300;-70
2021/11/25 13:25:53;;;;;;;64.17;34.87;;;;;;;;;;5009724;28;20678;-70
2021/11/25 13:28:32;;;;;;;71.63;36.33;;;;;;;;;;5000621;28;20560;-70
2021/11/25 13:31:21;;;;;;;65.90;34.33;;;;;;;;;;5006295;28;20293;-71
2021/11/25 13:34:06;;;;;;;64.03;34.93;;;;;;;;;;5002793;28;20630;-71
2021/11/25 13:36:50;;;;;;;77.23;36.53;;;;;;;;;;5008210;28;20187;-70
2021/11/25 13:39:24;;;;;;;70.30;35.53;;;;;;;;;;5005916;28;20244;-70
2021/11/25 13:41:55;;;;;;;64.93;35.93;;;;;;;;;;4999567;28;20187;-70
2021/11/25 13:44:23;;;;;;;68.90;36.30;;;;;;;;;;4995291;28;20732;-70
2021/11/25 13:46:52;;;;;;;71.97;37.33;;;;;;;;;;5006509;28;20478;-70
2021/11/25 13:49:18;;;;;;;72.40;38.80;;;;;;;;;;4994435;28;20190;-71
2021/11/25 13:51:46;;;;;;;81.07;41.10;;;;;;;;;;5018893;28;20202;-71
2021/11/25 13:54:20;;;;;;;72.13;39.57;;;;;;;;;;5011914;28;20218;-71
2021/11/25 13:56:51;;;;;;;76.13;39.80;;;;;;;;;;5008779;28;20260;-70
2021/11/25 13:59:20;;;;;;;71.27;37.30;;;;;;;;;;5002802;28;20561;-71
2021/11/25 14:01:47;;;;;;;73.07;37.30;;;;;;;;;;4994154;28;20195;-70
2021/11/25 14:04:14;;;;;;;74.90;36.70;;;;;;;;;;5004678;28;20319;-70
2021/11/25 14:06:40;;;;;;;71.87;39.13;;;;;;;;;;5002560;28;20307;-70
2021/11/25 14:09:14;;;;;;;72.93;36.20;;;;;;;;;;4312278;28;10000848;-70
2021/11/25 14:11:54;;;;;;;69.43;37.47;;;;;;;;;;5000091;28;20269;-70
2021/11/25 14:14:27;;;;;;;73.53;40.13;;;;;;;;;;5001271;28;20241;-70
2021/11/25 14:16:53;;;;;;;77.23;39.03;;;;;;;;;;4999273;28;20195;-70
2021/11/25 14:19:22;;;;;;;74.20;39.00;;;;;;;;;;4998363;28;20179;-70
2021/11/25 14:21:53;;;;;;;68.20;36.53;;;;;;;;;;4995872;28;20192;-70
2021/11/25 14:24:21;;;;;;;71.67;36.63;;;;;;;;;;5009242;28;20198;-71
2021/11/25 14:32:30;;;;;;;76.53;38.30;;;;;;;;;;4995212;28;20236;-70